createdAt,value
2022-12-18T00:01:32.669Z,62.30
2022-12-18T00:04:03.477Z,66.60
2022-12-18T00:06:33.736Z,66.70
2022-12-18T00:09:02.930Z,63.60
2022-12-18T00:11:32.060Z,64.00
2022-12-18T00:14:00.981Z,65.10
2022-12-18T00:16:31.269Z,68.70
2022-12-18T00:19:01.136Z,66.90
2022-12-18T00:21:30.871Z,66.40
2022-12-18T00:24:00.572Z,64.40
2022-12-18T00:26:31.392Z,66.70
2022-12-18T00:29:03.175Z,69.50
2022-12-18T00:31:32.294Z,64.80
2022-12-18T00:34:02.707Z,71.40
2022-12-18T00:36:34.310Z,62.50
2022-12-18T00:39:04.876Z,65.60
2022-12-18T00:41:51.869Z,67.50
2022-12-18T00:44:20.027Z,64.40
2022-12-18T00:46:48.873Z,60.30
2022-12-18T00:49:19.132Z,59.50
2022-12-18T00:51:48.649Z,61.20
2022-12-18T00:54:17.523Z,58.60
2022-12-18T00:56:49.024Z,69.00
2022-12-18T00:59:19.018Z,65.70
2022-12-18T01:01:47.624Z,62.60
2022-12-18T01:04:16.393Z,71.90
2022-12-18T01:06:46.867Z,74.10
2022-12-18T01:09:15.084Z,66.90
2022-12-18T01:11:42.970Z,70.80
2022-12-18T01:14:12.611Z,65.70
2022-12-18T01:16:40.824Z,62.40
2022-12-18T01:19:08.783Z,56.70
2022-12-18T01:21:36.653Z,59.90
2022-12-18T01:24:07.301Z,63.20
2022-12-18T01:26:35.244Z,58.90
2022-12-18T01:29:04.185Z,62.80
2022-12-18T01:31:35.138Z,57.50
2022-12-18T01:34:06.140Z,56.00
2022-12-18T01:36:39.976Z,57.50
2022-12-18T01:39:12.331Z,59.30
2022-12-18T01:42:01.979Z,58.50
2022-12-18T01:44:57.266Z,60.30
2022-12-18T01:47:37.935Z,56.40
2022-12-18T01:50:16.879Z,59.60
2022-12-18T01:52:48.829Z,54.00
2022-12-18T01:55:19.799Z,54.70
2022-12-18T01:57:49.225Z,55.00
2022-12-18T02:00:21.343Z,49.60
2022-12-18T02:02:49.517Z,57.60
2022-12-18T02:05:23.840Z,53.80
2022-12-18T02:10:30.154Z,54.80
2022-12-18T02:13:10.969Z,52.70
2022-12-18T02:15:49.143Z,57.00
2022-12-18T02:18:46.432Z,57.20
2022-12-18T02:21:47.167Z,67.80
2022-12-18T02:24:26.483Z,57.10
2022-12-18T02:27:00.480Z,60.60
2022-12-18T02:29:50.524Z,57.90
2022-12-18T02:32:32.706Z,62.80
2022-12-18T02:35:05.680Z,69.00
2022-12-18T02:37:36.195Z,64.20
2022-12-18T02:40:06.422Z,61.50
2022-12-18T02:42:34.795Z,60.50
2022-12-18T02:45:03.504Z,62.30
2022-12-18T02:47:39.421Z,67.10
2022-12-18T02:50:10.652Z,67.40
2022-12-18T02:53:30.380Z,61.30
2022-12-18T02:56:15.921Z,64.20
2022-12-18T02:58:59.014Z,65.50
2022-12-18T03:02:12.360Z,63.00
2022-12-18T03:05:03.850Z,67.30
2022-12-18T03:07:47.145Z,63.00
2022-12-18T03:10:21.354Z,60.10
2022-12-18T03:12:55.669Z,60.80
2022-12-18T03:15:30.112Z,62.30
2022-12-18T03:18:08.855Z,69.70
2022-12-18T03:20:40.878Z,63.60
2022-12-18T03:23:14.135Z,63.10
2022-12-18T03:25:44.867Z,59.80
2022-12-18T03:28:20.777Z,61.70
2022-12-18T03:31:00.654Z,63.10
2022-12-18T03:33:39.477Z,64.60
2022-12-18T03:36:08.157Z,57.30
2022-12-18T03:38:36.280Z,58.90
2022-12-18T03:41:16.692Z,60.00
2022-12-18T03:44:12.613Z,64.90
2022-12-18T03:46:56.136Z,67.30
2022-12-18T03:49:41.152Z,68.10
2022-12-18T03:52:19.077Z,65.20
2022-12-18T03:54:47.972Z,61.40
2022-12-18T03:57:20.712Z,60.20
2022-12-18T03:59:54.077Z,58.60
2022-12-18T04:02:24.911Z,60.80
2022-12-18T04:04:57.956Z,71.40
2022-12-18T04:07:26.386Z,65.90
2022-12-18T04:09:57.706Z,56.60
2022-12-18T04:12:27.327Z,56.40
2022-12-18T04:14:55.481Z,59.00
2022-12-18T04:17:24.845Z,62.50
2022-12-18T04:19:53.109Z,65.60
2022-12-18T04:22:21.965Z,63.90
2022-12-18T04:24:53.489Z,60.10
2022-12-18T04:27:29.400Z,60.60
2022-12-18T04:30:00.637Z,58.50
2022-12-18T04:32:28.632Z,63.10
2022-12-18T04:34:56.592Z,75.00
2022-12-18T04:37:24.858Z,67.10
2022-12-18T04:39:52.985Z,64.70
2022-12-18T04:42:26.931Z,67.40
2022-12-18T04:44:54.817Z,65.40
2022-12-18T04:47:47.972Z,67.00
2022-12-18T04:50:15.933Z,73.00
2022-12-18T04:52:44.079Z,69.30
2022-12-18T04:55:11.980Z,75.00
2022-12-18T04:57:39.909Z,72.80
2022-12-18T05:00:08.838Z,65.80
2022-12-18T05:02:36.879Z,69.80
2022-12-18T05:05:05.565Z,63.20
2022-12-18T05:07:33.482Z,70.10
2022-12-18T05:10:01.708Z,70.80
2022-12-18T05:12:32.326Z,75.90
2022-12-18T05:15:00.413Z,70.80
2022-12-18T05:17:28.400Z,74.90
2022-12-18T05:19:56.315Z,71.30
2022-12-18T05:22:24.239Z,92.50
2022-12-18T05:24:52.168Z,95.40
2022-12-18T05:27:21.672Z,79.10
2022-12-18T05:29:49.638Z,76.60
2022-12-18T05:32:23.203Z,76.80
2022-12-18T05:34:51.221Z,68.40
2022-12-18T05:37:19.256Z,77.20
2022-12-18T05:39:47.162Z,80.20
2022-12-18T05:42:15.416Z,81.80
2022-12-18T05:44:44.713Z,78.20
2022-12-18T05:47:12.571Z,68.40
2022-12-18T05:49:40.723Z,65.20
2022-12-18T05:52:08.777Z,71.40
2022-12-18T05:54:36.701Z,71.30
2022-12-18T05:57:04.653Z,75.80
2022-12-18T05:59:32.648Z,82.60
2022-12-18T06:02:00.702Z,68.60
2022-12-18T06:04:32.113Z,76.70
2022-12-18T06:07:00.330Z,75.40
2022-12-18T06:09:29.937Z,76.20
2022-12-18T06:11:57.900Z,70.50
2022-12-18T06:14:25.861Z,76.10
2022-12-18T06:16:53.880Z,69.60
2022-12-18T06:19:21.899Z,67.40
2022-12-18T06:21:51.310Z,73.80
2022-12-18T06:24:19.207Z,80.60
2022-12-18T06:26:47.105Z,87.90
2022-12-18T06:29:15.212Z,77.50
2022-12-18T06:31:43.137Z,71.30
2022-12-18T06:34:11.828Z,88.80
2022-12-18T06:36:39.793Z,83.20
2022-12-18T06:39:07.844Z,94.70
2022-12-18T06:41:37.168Z,90.80
2022-12-18T06:44:05.116Z,94.80
2022-12-18T06:46:33.337Z,77.90
2022-12-18T06:49:01.315Z,89.30
2022-12-18T06:51:29.425Z,71.00
2022-12-18T06:53:57.422Z,78.00
2022-12-18T06:56:25.319Z,91.70
2022-12-18T06:58:53.608Z,86.80
2022-12-18T07:01:22.292Z,84.70
2022-12-18T07:03:57.951Z,75.60
2022-12-18T07:06:26.690Z,81.90
2022-12-18T07:08:55.148Z,76.40
2022-12-18T07:11:23.226Z,95.10
2022-12-18T07:13:51.197Z,92.60
2022-12-18T07:16:25.192Z,85.80
2022-12-18T07:18:56.541Z,90.70
2022-12-18T07:21:25.522Z,81.00
2022-12-18T07:23:53.425Z,84.90
2022-12-18T07:26:22.837Z,80.10
2022-12-18T07:28:51.417Z,85.60
2022-12-18T07:31:22.242Z,79.20
2022-12-18T07:33:51.984Z,96.30
2022-12-18T07:36:20.935Z,97.30
2022-12-18T07:38:50.249Z,89.20
2022-12-18T07:41:18.196Z,71.50
2022-12-18T07:43:46.697Z,80.30
2022-12-18T07:46:16.731Z,75.70
2022-12-18T07:48:49.437Z,79.90
2022-12-18T07:51:19.692Z,78.60
2022-12-18T07:53:49.439Z,85.70
2022-12-18T07:56:30.485Z,74.00
2022-12-18T07:59:00.419Z,84.80
2022-12-18T08:01:28.850Z,87.60
2022-12-18T08:03:58.703Z,83.90
2022-12-18T08:06:26.785Z,93.60
2022-12-18T08:08:56.753Z,96.40
2022-12-18T08:11:26.885Z,93.60
2022-12-18T08:13:55.192Z,104.30
2022-12-18T08:16:25.044Z,121.40
2022-12-18T08:18:54.870Z,104.50
2022-12-18T08:21:29.351Z,88.40
2022-12-18T08:24:00.143Z,114.80
2022-12-18T08:26:30.466Z,90.80
2022-12-18T08:28:59.847Z,95.50
2022-12-18T08:31:29.766Z,103.10
2022-12-18T08:33:58.315Z,91.80
2022-12-18T08:36:26.503Z,83.10
2022-12-18T08:38:55.508Z,84.50
2022-12-18T08:41:23.680Z,93.20
2022-12-18T08:44:10.667Z,73.10
2022-12-18T08:46:40.932Z,82.60
2022-12-18T08:49:10.580Z,89.80
2022-12-18T08:51:39.742Z,76.60
2022-12-18T08:54:08.131Z,78.30
2022-12-18T08:56:36.141Z,101.90
2022-12-18T08:59:05.457Z,97.80
2022-12-18T09:01:33.627Z,91.10
2022-12-18T09:04:02.030Z,73.80
2022-12-18T09:06:29.970Z,71.90
2022-12-18T09:08:58.456Z,81.80
2022-12-18T09:11:29.598Z,80.70
2022-12-18T09:13:59.192Z,83.30
2022-12-18T09:16:32.380Z,81.80
2022-12-18T09:19:01.618Z,83.50
2022-12-18T09:21:35.803Z,72.80
2022-12-18T09:24:08.017Z,69.50
2022-12-18T09:26:37.731Z,83.60
2022-12-18T09:29:08.308Z,65.90
2022-12-18T09:31:37.174Z,79.30
2022-12-18T09:34:05.199Z,87.80
2022-12-18T09:36:33.273Z,79.40
2022-12-18T09:39:06.289Z,70.40
2022-12-18T09:41:41.977Z,61.30
2022-12-18T09:44:33.971Z,65.10
2022-12-18T09:47:19.056Z,54.90
2022-12-18T09:49:50.734Z,56.40
2022-12-18T09:52:42.298Z,55.70
2022-12-18T09:55:36.486Z,58.60
2022-12-18T09:58:19.929Z,61.60
2022-12-18T10:00:47.856Z,66.10
2022-12-18T10:03:17.297Z,54.90
2022-12-18T10:05:52.116Z,58.40
2022-12-18T10:08:25.911Z,63.40
2022-12-18T10:10:58.523Z,55.00
2022-12-18T10:13:36.104Z,57.50
2022-12-18T10:16:16.557Z,52.40
2022-12-18T10:19:22.451Z,51.20
2022-12-18T10:22:03.816Z,55.10
2022-12-18T10:25:00.400Z,63.00
2022-12-18T10:27:29.675Z,120.60
2022-12-18T10:29:59.043Z,68.30
2022-12-18T10:32:30.388Z,47.50
2022-12-18T10:35:00.791Z,44.50
2022-12-18T10:37:30.931Z,55.00
2022-12-18T10:40:15.476Z,53.70
2022-12-18T10:43:04.220Z,56.30
2022-12-18T10:45:32.275Z,50.60
2022-12-18T10:48:00.238Z,52.90
2022-12-18T10:51:09.099Z,51.70
2022-12-18T10:53:28.698Z,52.40
2022-12-18T10:55:59.842Z,53.40
2022-12-18T10:58:32.578Z,50.70
2022-12-18T11:01:08.173Z,46.90
2022-12-18T11:03:42.494Z,60.20
2022-12-18T11:06:19.829Z,52.50
2022-12-18T11:09:19.948Z,50.30
2022-12-18T11:11:53.474Z,53.30
2022-12-18T11:14:27.710Z,58.30
2022-12-18T11:17:24.440Z,51.70
2022-12-18T11:19:45.221Z,52.60
2022-12-18T11:22:27.636Z,52.70
2022-12-18T11:25:35.788Z,52.70
2022-12-18T11:28:05.750Z,64.30
2022-12-18T11:30:36.070Z,53.30
2022-12-18T11:33:31.124Z,50.90
2022-12-18T11:36:04.813Z,55.60
2022-12-18T11:38:40.388Z,52.80
2022-12-18T11:41:17.876Z,51.00
2022-12-18T11:43:56.873Z,47.90
2022-12-18T11:46:32.050Z,51.50
2022-12-18T11:49:07.304Z,53.90
2022-12-18T11:52:25.403Z,51.60
2022-12-18T11:54:56.670Z,52.40
2022-12-18T11:57:35.976Z,58.80
2022-12-18T12:00:36.620Z,55.20
2022-12-18T12:03:04.524Z,58.90
2022-12-18T12:05:37.762Z,57.10
2022-12-18T12:08:08.764Z,57.10
2022-12-18T12:11:08.665Z,57.20
2022-12-18T12:13:58.441Z,57.00
2022-12-18T12:16:34.638Z,56.20
2022-12-18T12:19:20.763Z,51.10
2022-12-18T12:22:05.076Z,51.10
2022-12-18T12:25:09.335Z,49.40
2022-12-18T12:28:08.184Z,46.70
2022-12-18T12:30:45.188Z,46.00
2022-12-18T12:33:34.830Z,47.90
2022-12-18T12:36:27.079Z,51.60
2022-12-18T12:39:06.463Z,46.10
2022-12-18T12:41:55.303Z,51.10
2022-12-18T12:44:28.605Z,49.80
2022-12-18T12:47:01.114Z,51.70
2022-12-18T12:52:35.943Z,66.50
2022-12-18T12:55:14.441Z,62.60
2022-12-18T12:57:47.416Z,54.40
2022-12-18T13:00:25.299Z,48.90
2022-12-18T13:03:05.378Z,53.90
2022-12-18T13:05:55.047Z,59.70
2022-12-18T13:08:25.430Z,55.60
2022-12-18T13:11:17.109Z,46.60
2022-12-18T13:13:43.500Z,51.30
2022-12-18T13:13:56.656Z,55.90
2022-12-18T13:16:26.815Z,60.80
2022-12-18T13:18:59.900Z,51.00
2022-12-18T13:21:32.061Z,50.60
2022-12-18T13:24:32.559Z,56.20
2022-12-18T13:27:00.524Z,52.40
2022-12-18T13:29:43.176Z,53.20
2022-12-18T13:32:22.948Z,57.90
2022-12-18T13:35:23.070Z,58.00
2022-12-18T13:37:54.358Z,58.90
2022-12-18T13:40:41.643Z,62.30
2022-12-18T13:43:18.670Z,66.40
2022-12-18T13:46:02.895Z,61.60
2022-12-18T13:48:36.615Z,59.40
2022-12-18T13:51:08.069Z,60.00
2022-12-18T13:53:58.571Z,63.00
2022-12-18T13:56:30.877Z,64.00
2022-12-18T13:59:34.892Z,73.90
2022-12-18T14:02:17.978Z,68.60
2022-12-18T14:04:48.059Z,66.40
2022-12-18T14:07:17.867Z,66.20
2022-12-18T14:09:55.645Z,60.20
2022-12-18T14:12:54.706Z,63.20
2022-12-18T14:15:35.126Z,65.70
2022-12-18T14:18:24.532Z,66.80
2022-12-18T14:20:55.854Z,74.20
2022-12-18T14:23:42.292Z,73.80
2022-12-18T14:26:46.520Z,85.20
2022-12-18T14:29:28.913Z,80.60
2022-12-18T14:32:17.890Z,96.70
2022-12-18T14:34:50.650Z,91.50
2022-12-18T14:37:23.599Z,79.60
2022-12-18T14:40:10.520Z,97.60
2022-12-18T14:42:39.159Z,101.80
2022-12-18T14:45:44.363Z,99.20
2022-12-18T14:48:12.564Z,104.70
2022-12-18T14:50:42.025Z,112.50
2022-12-18T14:53:34.004Z,110.50
2022-12-18T14:56:14.849Z,116.90
2022-12-18T14:58:53.289Z,117.30
2022-12-18T15:01:35.289Z,137.90
2022-12-18T15:04:04.778Z,127.40
2022-12-18T15:06:38.284Z,149.70
2022-12-18T15:09:25.238Z,143.30
2022-12-18T15:12:01.408Z,141.60
2022-12-18T15:14:39.818Z,130.20
2022-12-18T15:17:19.074Z,134.50
2022-12-18T15:19:49.196Z,179.20
2022-12-18T15:22:30.716Z,134.10
2022-12-18T15:25:04.202Z,122.90
2022-12-18T15:27:38.972Z,122.60
2022-12-18T15:30:09.979Z,97.60
2022-12-18T15:32:39.476Z,104.60
2022-12-18T15:35:15.785Z,121.50
2022-12-18T15:37:44.738Z,178.50
2022-12-18T15:40:20.171Z,184.10
2022-12-18T15:43:07.782Z,197.40
2022-12-18T15:45:36.937Z,174.20
2022-12-18T15:48:22.003Z,242.80
2022-12-18T15:50:55.282Z,204.90
2022-12-18T15:53:24.745Z,173.00
2022-12-18T15:56:11.198Z,134.50
2022-12-18T15:58:40.521Z,138.90
2022-12-18T16:01:10.523Z,128.90
2022-12-18T16:03:39.102Z,104.20
2022-12-18T16:06:10.350Z,101.40
2022-12-18T16:08:38.348Z,114.10
2022-12-18T16:11:39.407Z,130.70
2022-12-18T16:14:21.553Z,121.80
2022-12-18T16:16:53.689Z,143.40
2022-12-18T16:19:22.678Z,140.00
2022-12-18T16:21:53.202Z,142.80
2022-12-18T16:24:30.480Z,136.00
2022-12-18T16:27:24.618Z,134.30
2022-12-18T16:29:52.537Z,127.00
2022-12-18T16:32:24.541Z,127.70
2022-12-18T16:34:52.753Z,120.00
2022-12-18T16:37:20.800Z,108.60
2022-12-18T16:39:48.778Z,121.20
2022-12-18T16:42:45.301Z,116.50
2022-12-18T16:45:16.405Z,102.60
2022-12-18T16:47:44.881Z,112.80
2022-12-18T16:50:13.165Z,97.70
2022-12-18T16:52:44.041Z,102.90
2022-12-18T16:55:12.030Z,115.00
2022-12-18T16:57:40.011Z,104.10
2022-12-18T17:00:09.813Z,97.10
2022-12-18T17:02:37.959Z,108.10
2022-12-18T17:05:06.424Z,91.20
2022-12-18T17:07:34.511Z,108.30
2022-12-18T17:10:06.733Z,112.10
2022-12-18T17:12:34.737Z,104.90
2022-12-18T17:15:03.252Z,97.10
2022-12-18T17:17:31.294Z,91.00
2022-12-18T17:19:59.641Z,92.10
2022-12-18T17:22:28.205Z,78.50
2022-12-18T17:24:56.456Z,70.40
2022-12-18T17:27:24.396Z,72.90
2022-12-18T17:29:52.322Z,66.60
2022-12-18T17:32:20.223Z,82.60
2022-12-18T17:34:48.486Z,75.20
2022-12-18T17:37:16.513Z,74.60
2022-12-18T17:39:44.605Z,71.90
2022-12-18T17:42:15.317Z,78.40
2022-12-18T17:44:44.376Z,81.10
2022-12-18T17:47:15.354Z,74.20
2022-12-18T17:49:43.283Z,70.80
2022-12-18T17:52:11.458Z,68.00
2022-12-18T17:54:42.055Z,65.20
2022-12-18T17:57:12.120Z,68.90
2022-12-18T17:59:43.711Z,71.80
2022-12-18T18:02:12.300Z,67.80
2022-12-18T18:04:40.609Z,72.10
2022-12-18T18:07:17.971Z,63.10
2022-12-18T18:09:46.321Z,65.40
2022-12-18T18:12:32.627Z,75.00
2022-12-18T18:15:00.588Z,87.40
2022-12-18T18:17:28.970Z,108.40
2022-12-18T18:19:58.939Z,106.60
2022-12-18T18:22:27.141Z,86.40
2022-12-18T18:24:55.490Z,74.80
2022-12-18T18:27:23.644Z,71.50
2022-12-18T18:29:51.768Z,74.50
2022-12-18T18:32:19.750Z,77.00
2022-12-18T18:34:49.816Z,74.40
2022-12-18T18:37:18.105Z,65.50
2022-12-18T18:39:46.171Z,65.70
2022-12-18T18:42:14.947Z,63.60
2022-12-18T18:44:48.604Z,68.00
2022-12-18T18:47:24.186Z,66.30
2022-12-18T18:49:52.203Z,65.00
2022-12-18T18:52:20.193Z,62.40
2022-12-18T18:55:11.787Z,62.50
2022-12-18T18:57:37.341Z,63.90
2022-12-18T19:00:09.956Z,64.60
2022-12-18T19:02:52.163Z,63.30
2022-12-18T19:05:33.140Z,61.30
2022-12-18T19:08:01.303Z,68.10
2022-12-18T19:10:29.887Z,59.30
2022-12-18T19:13:17.512Z,62.00
2022-12-18T19:15:46.069Z,69.40
2022-12-18T19:18:14.932Z,68.70
2022-12-18T19:20:43.122Z,70.90
2022-12-18T19:23:11.066Z,64.30
2022-12-18T19:25:42.698Z,63.40
2022-12-18T19:28:19.282Z,60.60
2022-12-18T19:30:55.374Z,67.20
2022-12-18T19:33:45.207Z,61.90
2022-12-18T19:36:23.016Z,62.40
2022-12-18T19:38:53.567Z,63.40
2022-12-18T19:41:25.638Z,62.30
2022-12-18T19:43:55.592Z,61.90
2022-12-18T19:46:24.599Z,61.60
2022-12-18T19:48:54.900Z,68.50
2022-12-18T19:51:29.856Z,62.40
2022-12-18T19:54:01.635Z,62.30
2022-12-18T19:56:35.087Z,60.90
2022-12-18T19:59:04.945Z,63.70
2022-12-18T20:01:35.962Z,60.80
2022-12-18T20:04:04.464Z,61.50
2022-12-18T20:06:53.389Z,61.70
2022-12-18T20:09:24.904Z,72.10
2022-12-18T20:11:56.124Z,69.90
2022-12-18T20:14:24.177Z,65.90
2022-12-18T20:16:53.765Z,68.60
2022-12-18T20:19:22.687Z,62.70
2022-12-18T20:21:51.240Z,63.60
2022-12-18T20:24:21.926Z,56.80
2022-12-18T20:26:49.988Z,57.10
2022-12-18T20:29:20.689Z,55.80
2022-12-18T20:31:48.720Z,64.20
2022-12-18T20:34:16.978Z,69.00
2022-12-18T20:36:49.261Z,55.20
2022-12-18T20:39:17.995Z,54.20
2022-12-18T20:41:47.266Z,57.20
2022-12-18T20:44:22.372Z,53.40
2022-12-18T20:47:03.358Z,55.60
2022-12-18T20:49:36.490Z,56.50
2022-12-18T20:52:06.177Z,54.10
2022-12-18T20:54:34.140Z,56.00
2022-12-18T20:57:03.839Z,54.10
2022-12-18T20:59:31.808Z,50.90
2022-12-18T21:01:59.960Z,56.10
2022-12-18T21:04:31.100Z,59.70
2022-12-18T21:07:02.645Z,58.30
2022-12-18T21:09:37.610Z,58.90
2022-12-18T21:12:42.550Z,58.80
2022-12-18T21:15:22.847Z,55.90
2022-12-18T21:17:54.891Z,62.20
2022-12-18T21:20:23.093Z,60.60
2022-12-18T21:22:51.535Z,61.80
2022-12-18T21:25:21.910Z,66.40
2022-12-18T21:27:49.929Z,59.00
2022-12-18T21:30:18.002Z,61.30
2022-12-18T21:32:46.074Z,61.70
2022-12-18T21:35:14.132Z,60.50
2022-12-18T21:37:42.133Z,57.80
2022-12-18T21:40:10.664Z,58.70
2022-12-18T21:42:57.454Z,58.10
2022-12-18T21:45:25.538Z,59.40
2022-12-18T21:47:53.488Z,60.10
2022-12-18T21:50:21.478Z,60.90
2022-12-18T21:52:49.495Z,61.10
2022-12-18T21:55:17.470Z,61.60
2022-12-18T21:57:45.528Z,70.50
2022-12-18T22:00:17.461Z,70.90
2022-12-18T22:02:49.138Z,72.00
2022-12-18T22:05:37.151Z,73.30
2022-12-18T22:08:06.942Z,70.90
2022-12-18T22:10:36.025Z,80.40
2022-12-18T22:13:05.777Z,73.30
2022-12-18T22:15:33.964Z,71.10
2022-12-18T22:18:02.079Z,75.60
2022-12-18T22:20:30.254Z,77.10
2022-12-18T22:22:59.504Z,73.10
2022-12-18T22:25:30.801Z,64.60
2022-12-18T22:28:17.081Z,61.00
2022-12-18T22:30:45.072Z,61.90
2022-12-18T22:33:13.105Z,57.40
2022-12-18T22:36:07.572Z,62.20
2022-12-18T22:38:35.549Z,58.50
2022-12-18T22:41:03.510Z,55.30
2022-12-18T22:43:31.448Z,56.00
2022-12-18T22:46:03.142Z,54.90
2022-12-18T22:48:31.105Z,53.60
2022-12-18T22:50:59.707Z,59.20
2022-12-18T22:53:27.786Z,56.20
2022-12-18T22:56:03.636Z,56.60
2022-12-18T22:58:31.622Z,59.00
2022-12-18T23:00:59.557Z,54.00
2022-12-18T23:03:28.188Z,57.30
2022-12-18T23:06:03.383Z,57.40
2022-12-18T23:08:31.883Z,57.30
2022-12-18T23:11:00.574Z,58.70
2022-12-18T23:13:29.056Z,58.10
2022-12-18T23:15:57.044Z,60.00
2022-12-18T23:18:25.188Z,58.10
2022-12-18T23:20:53.071Z,62.20
2022-12-18T23:23:21.109Z,60.60
2022-12-18T23:25:49.022Z,61.00
2022-12-18T23:28:16.932Z,60.70
2022-12-18T23:30:44.827Z,61.60
2022-12-18T23:33:12.726Z,58.00
2022-12-18T23:35:40.839Z,59.80
2022-12-18T23:38:08.830Z,58.60
2022-12-18T23:40:37.872Z,64.10
2022-12-18T23:43:05.939Z,59.00
2022-12-18T23:45:37.691Z,60.60
2022-12-18T23:48:05.728Z,60.50
2022-12-18T23:50:35.725Z,57.50
2022-12-18T23:53:05.580Z,57.60
2022-12-18T23:55:39.520Z,60.30
2022-12-18T23:58:14.981Z,56.40
